sensor_id;sensor_type;location;lat;lon;timestamp;P1;durP1;ratioP1;P2;durP2;ratioP2
19575;SDS011;41589;51.196;7.074;2023-04-01T00:00:28;0.90;;;0.90;;
19575;SDS011;41589;51.196;7.074;2023-04-01T00:05:28;0.80;;;0.80;;
19575;SDS011;41589;51.196;7.074;2023-04-01T00:10:29;0.87;;;0.87;;
19575;SDS011;41589;51.196;7.074;2023-04-01T00:15:30;1.57;;;0.80;;
19575;SDS011;41589;51.196;7.074;2023-04-01T00:20:30;0.93;;;0.90;;
19575;SDS011;41589;51.196;7.074;2023-04-01T00:25:31;0.70;;;0.70;;
19575;SDS011;41589;51.196;7.074;2023-04-01T00:30:31;0.73;;;0.73;;
19575;SDS011;41589;51.196;7.074;2023-04-01T00:35:32;0.70;;;0.70;;
19575;SDS011;41589;51.196;7.074;2023-04-01T00:40:37;0.97;;;0.90;;
19575;SDS011;41589;51.196;7.074;2023-04-01T00:45:41;0.80;;;0.80;;
19575;SDS011;41589;51.196;7.074;2023-04-01T00:50:44;0.70;;;0.70;;
19575;SDS011;41589;51.196;7.074;2023-04-01T00:56:24;0.80;;;0.80;;
19575;SDS011;41589;51.196;7.074;2023-04-01T01:01:26;0.70;;;0.70;;
19575;SDS011;41589;51.196;7.074;2023-04-01T01:06:36;0.70;;;0.70;;
19575;SDS011;41589;51.196;7.074;2023-04-01T01:12:11;1.07;;;1.03;;
19575;SDS011;41589;51.196;7.074;2023-04-01T01:39:11;0.90;;;0.90;;
19575;SDS011;41589;51.196;7.074;2023-04-01T01:44:14;0.70;;;0.70;;
19575;SDS011;41589;51.196;7.074;2023-04-01T01:49:16;0.70;;;0.70;;
19575;SDS011;41589;51.196;7.074;2023-04-01T01:54:17;0.80;;;0.80;;
19575;SDS011;41589;51.196;7.074;2023-04-01T01:59:19;0.77;;;0.77;;
19575;SDS011;41589;51.196;7.074;2023-04-01T02:04:21;0.70;;;0.70;;
19575;SDS011;41589;51.196;7.074;2023-04-01T02:09:22;0.90;;;0.90;;
19575;SDS011;41589;51.196;7.074;2023-04-01T02:14:28;0.90;;;0.90;;
19575;SDS011;41589;51.196;7.074;2023-04-01T02:19:38;0.70;;;0.70;;
19575;SDS011;41589;51.196;7.074;2023-04-01T02:24:43;0.80;;;0.80;;
19575;SDS011;41589;51.196;7.074;2023-04-01T02:29:48;1.20;;;1.20;;
19575;SDS011;41589;51.196;7.074;2023-04-01T02:34:50;0.73;;;0.73;;
19575;SDS011;41589;51.196;7.074;2023-04-01T02:39:52;0.70;;;0.70;;
19575;SDS011;41589;51.196;7.074;2023-04-01T02:44:52;0.70;;;0.70;;
19575;SDS011;41589;51.196;7.074;2023-04-01T02:49:53;0.70;;;0.70;;
19575;SDS011;41589;51.196;7.074;2023-04-01T02:54:58;0.77;;;0.77;;
19575;SDS011;41589;51.196;7.074;2023-04-01T02:59:58;0.80;;;0.80;;
19575;SDS011;41589;51.196;7.074;2023-04-01T03:04:59;0.60;;;0.60;;
19575;SDS011;41589;51.196;7.074;2023-04-01T03:09:59;0.80;;;0.80;;
19575;SDS011;41589;51.196;7.074;2023-04-01T03:15:00;0.93;;;0.80;;
19575;SDS011;41589;51.196;7.074;2023-04-01T03:20:00;0.80;;;0.80;;
19575;SDS011;41589;51.196;7.074;2023-04-01T03:25:01;0.87;;;0.70;;
19575;SDS011;41589;51.196;7.074;2023-04-01T03:30:04;0.80;;;0.80;;
19575;SDS011;41589;51.196;7.074;2023-04-01T03:35:09;0.80;;;0.80;;
19575;SDS011;41589;51.196;7.074;2023-04-01T03:40:10;0.83;;;0.83;;
19575;SDS011;41589;51.196;7.074;2023-04-01T03:45:11;0.70;;;0.70;;
19575;SDS011;41589;51.196;7.074;2023-04-01T03:50:12;0.70;;;0.70;;
19575;SDS011;41589;51.196;7.074;2023-04-01T03:55:13;0.70;;;0.70;;
19575;SDS011;41589;51.196;7.074;2023-04-01T04:00:14;0.70;;;0.70;;
19575;SDS011;41589;51.196;7.074;2023-04-01T04:05:17;0.80;;;0.80;;
19575;SDS011;41589;51.196;7.074;2023-04-01T04:10:19;0.70;;;0.70;;
19575;SDS011;41589;51.196;7.074;2023-04-01T04:15:19;0.80;;;0.80;;
19575;SDS011;41589;51.196;7.074;2023-04-01T04:20:20;0.70;;;0.70;;
19575;SDS011;41589;51.196;7.074;2023-04-01T04:25:21;0.80;;;0.80;;
19575;SDS011;41589;51.196;7.074;2023-04-01T04:30:24;0.90;;;0.90;;
19575;SDS011;41589;51.196;7.074;2023-04-01T04:35:25;0.90;;;0.90;;
19575;SDS011;41589;51.196;7.074;2023-04-01T04:40:25;0.80;;;0.80;;
19575;SDS011;41589;51.196;7.074;2023-04-01T04:45:32;0.80;;;0.80;;
19575;SDS011;41589;51.196;7.074;2023-04-01T04:50:33;0.90;;;0.90;;
19575;SDS011;41589;51.196;7.074;2023-04-01T04:55:35;0.80;;;0.80;;
19575;SDS011;41589;51.196;7.074;2023-04-01T05:00:56;0.90;;;0.90;;
19575;SDS011;41589;51.196;7.074;2023-04-01T05:06:01;0.90;;;0.90;;
19575;SDS011;41589;51.196;7.074;2023-04-01T05:11:03;0.90;;;0.90;;
19575;SDS011;41589;51.196;7.074;2023-04-01T05:16:16;0.80;;;0.80;;
19575;SDS011;41589;51.196;7.074;2023-04-01T05:21:27;1.03;;;0.80;;
19575;SDS011;41589;51.196;7.074;2023-04-01T05:26:35;0.83;;;0.83;;
19575;SDS011;41589;51.196;7.074;2023-04-01T05:31:43;0.83;;;0.83;;
19575;SDS011;41589;51.196;7.074;2023-04-01T05:36:43;0.87;;;0.87;;
19575;SDS011;41589;51.196;7.074;2023-04-01T05:41:44;0.80;;;0.80;;
19575;SDS011;41589;51.196;7.074;2023-04-01T05:46:45;0.80;;;0.80;;
19575;SDS011;41589;51.196;7.074;2023-04-01T05:51:57;0.80;;;0.80;;
19575;SDS011;41589;51.196;7.074;2023-04-01T05:56:57;0.80;;;0.80;;
19575;SDS011;41589;51.196;7.074;2023-04-01T06:01:57;0.87;;;0.87;;
19575;SDS011;41589;51.196;7.074;2023-04-01T06:06:58;0.90;;;0.90;;
19575;SDS011;41589;51.196;7.074;2023-04-01T06:28:07;0.97;;;0.97;;
19575;SDS011;41589;51.196;7.074;2023-04-01T06:44:38;1.00;;;1.00;;
19575;SDS011;41589;51.196;7.074;2023-04-01T06:55:41;1.40;;;1.00;;
19575;SDS011;41589;51.196;7.074;2023-04-01T07:00:52;0.90;;;0.90;;
19575;SDS011;41589;51.196;7.074;2023-04-01T07:05:56;0.90;;;0.90;;
19575;SDS011;41589;51.196;7.074;2023-04-01T07:11:04;1.07;;;1.07;;
19575;SDS011;41589;51.196;7.074;2023-04-01T07:21:41;0.80;;;0.80;;
19575;SDS011;41589;51.196;7.074;2023-04-01T07:26:56;0.80;;;0.80;;
19575;SDS011;41589;51.196;7.074;2023-04-01T07:37:31;1.00;;;1.00;;
19575;SDS011;41589;51.196;7.074;2023-04-01T07:42:46;0.80;;;0.80;;
19575;SDS011;41589;51.196;7.074;2023-04-01T07:48:01;0.90;;;0.90;;
19575;SDS011;41589;51.196;7.074;2023-04-01T07:53:15;1.00;;;1.00;;
19575;SDS011;41589;51.196;7.074;2023-04-01T07:58:31;0.90;;;0.90;;
19575;SDS011;41589;51.196;7.074;2023-04-01T08:04:21;1.00;;;1.00;;
19575;SDS011;41589;51.196;7.074;2023-04-01T08:20:34;0.90;;;0.90;;
19575;SDS011;41589;51.196;7.074;2023-04-01T08:25:45;0.90;;;0.90;;
19575;SDS011;41589;51.196;7.074;2023-04-01T08:30:53;0.90;;;0.90;;
19575;SDS011;41589;51.196;7.074;2023-04-01T08:52:21;0.90;;;0.90;;
19575;SDS011;41589;51.196;7.074;2023-04-01T08:57:45;1.00;;;1.00;;
19575;SDS011;41589;51.196;7.074;2023-04-01T09:03:25;0.90;;;0.90;;
19575;SDS011;41589;51.196;7.074;2023-04-01T09:45:23;1.23;;;1.23;;
19575;SDS011;41589;51.196;7.074;2023-04-01T09:50:34;1.10;;;1.10;;
19575;SDS011;41589;51.196;7.074;2023-04-01T11:08:00;0.60;;;0.60;;
19575;SDS011;41589;51.196;7.074;2023-04-01T11:13:33;0.60;;;0.60;;
19575;SDS011;41589;51.196;7.074;2023-04-01T11:24:05;0.70;;;0.70;;
19575;SDS011;41589;51.196;7.074;2023-04-01T11:29:36;0.60;;;0.60;;
19575;SDS011;41589;51.196;7.074;2023-04-01T11:52:22;0.60;;;0.60;;
19575;SDS011;41589;51.196;7.074;2023-04-01T11:57:51;0.60;;;0.60;;
19575;SDS011;41589;51.196;7.074;2023-04-01T12:15:03;0.50;;;0.50;;
19575;SDS011;41589;51.196;7.074;2023-04-01T12:30:42;0.60;;;0.60;;
19575;SDS011;41589;51.196;7.074;2023-04-01T12:36:11;0.60;;;0.60;;
19575;SDS011;41589;51.196;7.074;2023-04-01T12:58:01;0.60;;;0.60;;
19575;SDS011;41589;51.196;7.074;2023-04-01T13:03:34;0.60;;;0.60;;
19575;SDS011;41589;51.196;7.074;2023-04-01T13:19:07;0.60;;;0.60;;
19575;SDS011;41589;51.196;7.074;2023-04-01T13:34:46;0.60;;;0.60;;
19575;SDS011;41589;51.196;7.074;2023-04-01T13:40:02;0.60;;;0.60;;
19575;SDS011;41589;51.196;7.074;2023-04-01T13:45:34;0.60;;;0.60;;
19575;SDS011;41589;51.196;7.074;2023-04-01T13:50:44;0.60;;;0.60;;
19575;SDS011;41589;51.196;7.074;2023-04-01T13:56:01;0.60;;;0.60;;
19575;SDS011;41589;51.196;7.074;2023-04-01T14:01:25;0.60;;;0.60;;
19575;SDS011;41589;51.196;7.074;2023-04-01T14:12:18;0.60;;;0.60;;
19575;SDS011;41589;51.196;7.074;2023-04-01T14:17:35;0.60;;;0.60;;
19575;SDS011;41589;51.196;7.074;2023-04-01T14:22:57;0.60;;;0.60;;
19575;SDS011;41589;51.196;7.074;2023-04-01T14:39:10;0.60;;;0.60;;
19575;SDS011;41589;51.196;7.074;2023-04-01T14:50:03;0.60;;;0.60;;
19575;SDS011;41589;51.196;7.074;2023-04-01T15:00:41;0.60;;;0.60;;
19575;SDS011;41589;51.196;7.074;2023-04-01T15:11:21;0.60;;;0.60;;
19575;SDS011;41589;51.196;7.074;2023-04-01T15:16:30;0.60;;;0.60;;
19575;SDS011;41589;51.196;7.074;2023-04-01T15:32:17;0.60;;;0.60;;
19575;SDS011;41589;51.196;7.074;2023-04-01T15:37:34;0.60;;;0.60;;
19575;SDS011;41589;51.196;7.074;2023-04-01T15:47:58;0.60;;;0.60;;
19575;SDS011;41589;51.196;7.074;2023-04-01T16:03:57;0.60;;;0.60;;
19575;SDS011;41589;51.196;7.074;2023-04-01T16:09:30;0.60;;;0.60;;
19575;SDS011;41589;51.196;7.074;2023-04-01T16:14:51;0.60;;;0.60;;
19575;SDS011;41589;51.196;7.074;2023-04-01T16:25:39;0.60;;;0.60;;
19575;SDS011;41589;51.196;7.074;2023-04-01T16:31:05;0.70;;;0.70;;
19575;SDS011;41589;51.196;7.074;2023-04-01T16:36:26;0.70;;;0.70;;
19575;SDS011;41589;51.196;7.074;2023-04-01T16:41:34;0.60;;;0.60;;
19575;SDS011;41589;51.196;7.074;2023-04-01T16:46:43;0.60;;;0.60;;
19575;SDS011;41589;51.196;7.074;2023-04-01T17:02:10;0.60;;;0.60;;
19575;SDS011;41589;51.196;7.074;2023-04-01T17:23:50;0.60;;;0.60;;
19575;SDS011;41589;51.196;7.074;2023-04-01T17:28:57;0.70;;;0.70;;
19575;SDS011;41589;51.196;7.074;2023-04-01T17:49:57;0.70;;;0.70;;
19575;SDS011;41589;51.196;7.074;2023-04-01T18:05:46;0.60;;;0.60;;
19575;SDS011;41589;51.196;7.074;2023-04-01T18:11:05;0.67;;;0.67;;
19575;SDS011;41589;51.196;7.074;2023-04-01T18:21:49;0.60;;;0.60;;
19575;SDS011;41589;51.196;7.074;2023-04-01T18:27:03;0.60;;;0.60;;
19575;SDS011;41589;51.196;7.074;2023-04-01T18:32:15;0.70;;;0.70;;
19575;SDS011;41589;51.196;7.074;2023-04-01T18:37:34;0.60;;;0.60;;
19575;SDS011;41589;51.196;7.074;2023-04-01T18:48:16;0.63;;;0.63;;
19575;SDS011;41589;51.196;7.074;2023-04-01T19:08:43;0.70;;;0.70;;
19575;SDS011;41589;51.196;7.074;2023-04-01T19:25:02;0.60;;;0.60;;
19575;SDS011;41589;51.196;7.074;2023-04-01T19:30:31;0.67;;;0.67;;
19575;SDS011;41589;51.196;7.074;2023-04-01T19:35:44;0.60;;;0.60;;
19575;SDS011;41589;51.196;7.074;2023-04-01T19:46:39;0.60;;;0.60;;
19575;SDS011;41589;51.196;7.074;2023-04-01T19:57:14;0.60;;;0.60;;
19575;SDS011;41589;51.196;7.074;2023-04-01T20:02:38;0.60;;;0.60;;
19575;SDS011;41589;51.196;7.074;2023-04-01T20:07:52;0.60;;;0.60;;
19575;SDS011;41589;51.196;7.074;2023-04-01T20:18:36;0.70;;;0.70;;
19575;SDS011;41589;51.196;7.074;2023-04-01T20:23:50;0.70;;;0.70;;
19575;SDS011;41589;51.196;7.074;2023-04-01T20:34:35;0.60;;;0.60;;
19575;SDS011;41589;51.196;7.074;2023-04-01T20:45:35;0.60;;;0.60;;
19575;SDS011;41589;51.196;7.074;2023-04-01T20:50:51;0.60;;;0.60;;
19575;SDS011;41589;51.196;7.074;2023-04-01T21:01:19;0.60;;;0.60;;
19575;SDS011;41589;51.196;7.074;2023-04-01T21:17:20;0.50;;;0.50;;
19575;SDS011;41589;51.196;7.074;2023-04-01T21:22:40;0.60;;;0.60;;
19575;SDS011;41589;51.196;7.074;2023-04-01T21:50:15;0.70;;;0.70;;
19575;SDS011;41589;51.196;7.074;2023-04-01T21:55:47;0.60;;;0.60;;
19575;SDS011;41589;51.196;7.074;2023-04-01T22:05:59;0.60;;;0.60;;
19575;SDS011;41589;51.196;7.074;2023-04-01T22:11:31;0.60;;;0.60;;
19575;SDS011;41589;51.196;7.074;2023-04-01T22:45:21;0.60;;;0.60;;
19575;SDS011;41589;51.196;7.074;2023-04-01T22:51:14;0.60;;;0.60;;
19575;SDS011;41589;51.196;7.074;2023-04-01T23:07:59;0.63;;;0.63;;
19575;SDS011;41589;51.196;7.074;2023-04-01T23:13:40;0.60;;;0.60;;
19575;SDS011;41589;51.196;7.074;2023-04-01T23:24:45;0.70;;;0.70;;
19575;SDS011;41589;51.196;7.074;2023-04-01T23:35:58;0.70;;;0.70;;
19575;SDS011;41589;51.196;7.074;2023-04-01T23:46:37;0.70;;;0.70;;
19575;SDS011;41589;51.196;7.074;2023-04-01T23:51:58;0.70;;;0.70;;
19575;SDS011;41589;51.196;7.074;2023-04-01T23:57:38;0.60;;;0.60;;
